Time;durP1;ratioP1;P1;durP2;ratioP2;P2;SDS_P1;SDS_P2;PMS_P1;PMS_P2;Temp;Humidity;BMP_temperature;BMP_pressure;BME280_temperature;BME280_humidity;BME280_pressure;Samples;Min_cycle;Max_cycle;Signal;HPM_P1;HPM_P2
2023/04/21 00:00:08;;;;;;;3.72;3.35;;;7.40;99.90;;;;;;5071230;28;20466;-77
2023/04/21 00:02:38;;;;;;;3.72;3.38;;;7.40;99.90;;;;;;5074202;28;20042;-77
2023/04/21 00:05:06;;;;;;;4.65;3.90;;;7.40;99.90;;;;;;5056239;28;20087;-77
2023/04/21 00:07:32;;;;;;;5.15;4.20;;;7.40;99.90;;;;;;5058947;28;20017;-78
2023/04/21 00:09:58;;;;;;;3.90;3.33;;;7.30;99.90;;;;;;5058461;28;20032;-77
2023/04/21 00:12:24;;;;;;;5.10;3.20;;;7.30;99.90;;;;;;5075277;28;20039;-77
2023/04/21 00:14:49;;;;;;;3.80;3.35;;;7.30;99.90;;;;;;5076629;28;20058;-76
2023/04/21 00:17:15;;;;;;;4.78;3.88;;;7.30;99.90;;;;;;5092831;28;20115;-76
2023/04/21 00:19:41;;;;;;;5.28;4.25;;;7.30;99.90;;;;;;5104282;27;20031;-76
2023/04/21 00:22:10;;;;;;;4.72;3.97;;;7.30;99.90;;;;;;5109014;28;20021;-79
2023/04/21 00:24:36;;;;;;;5.43;4.20;;;7.30;99.90;;;;;;5097684;28;20047;-78
2023/04/21 00:27:02;;;;;;;4.82;4.28;;;7.30;99.90;;;;;;5097158;28;20028;-78
2023/04/21 00:29:28;;;;;;;4.50;3.80;;;7.30;99.90;;;;;;5081742;28;20472;-78
2023/04/21 00:31:54;;;;;;;7.88;6.55;;;7.30;99.90;;;;;;5076721;28;20021;-78
2023/04/21 00:34:19;;;;;;;8.63;6.70;;;7.30;99.90;;;;;;5080209;28;20080;-77
2023/04/21 00:36:45;;;;;;;8.48;6.20;;;7.20;99.90;;;;;;5097311;28;20017;-77
2023/04/21 00:39:11;;;;;;;8.75;6.25;;;7.30;99.90;;;;;;5076757;28;20093;-77
2023/04/21 00:41:38;;;;;;;7.93;5.93;;;7.30;99.90;;;;;;5074584;28;20126;-77
2023/04/21 00:44:06;;;;;;;7.00;5.25;;;7.30;99.90;;;;;;5072951;28;20484;-78
2023/04/21 00:46:32;;;;;;;7.47;4.90;;;7.30;99.90;;;;;;5073648;28;20073;-77
2023/04/21 00:49:02;;;;;;;5.05;4.35;;;7.30;99.90;;;;;;5076577;28;20020;-78
2023/04/21 00:51:28;;;;;;;5.13;4.53;;;7.30;99.90;;;;;;5076926;28;20013;-77
2023/04/21 00:53:55;;;;;;;5.47;4.55;;;7.30;99.90;;;;;;5057934;28;20140;-77
2023/04/21 00:56:21;;;;;;;7.60;5.35;;;7.30;99.90;;;;;;5055321;28;20052;-77
2023/04/21 00:58:48;;;;;;;7.38;6.28;;;7.30;99.90;;;;;;5057025;28;20378;-77
2023/04/21 01:01:14;;;;;;;7.95;5.65;;;7.30;99.90;;;;;;5058829;28;20021;-75
2023/04/21 01:03:40;;;;;;;8.48;6.45;;;7.30;99.90;;;;;;5075998;28;20040;-76
2023/04/21 01:06:07;;;;;;;8.10;6.07;;;7.30;99.90;;;;;;5094730;28;20021;-76
2023/04/21 01:08:33;;;;;;;7.00;5.25;;;7.30;99.90;;;;;;5094613;28;20068;-76
2023/04/21 01:10:59;;;;;;;6.13;4.93;;;7.30;99.90;;;;;;5076089;28;20024;-78
2023/04/21 01:13:24;;;;;;;5.93;4.47;;;7.30;99.90;;;;;;5067372;28;20017;-77
2023/04/21 01:15:53;;;;;;;5.40;4.28;;;7.30;99.90;;;;;;5065912;28;20029;-76
2023/04/21 01:18:19;;;;;;;5.80;4.85;;;7.30;99.90;;;;;;5086838;28;20039;-77
2023/04/21 01:20:44;;;;;;;5.63;4.78;;;7.30;99.90;;;;;;5097003;28;20028;-76
2023/04/21 01:23:10;;;;;;;4.75;4.25;;;7.30;99.90;;;;;;5095303;28;20027;-76
2023/04/21 01:25:36;;;;;;;4.63;3.83;;;7.30;99.90;;;;;;5078442;28;20121;-76
2023/04/21 01:28:02;;;;;;;5.38;4.07;;;7.30;99.90;;;;;;5078264;28;20024;-77
2023/04/21 01:30:28;;;;;;;5.13;3.90;;;7.30;99.90;;;;;;5079164;28;20028;-78
2023/04/21 01:32:54;;;;;;;5.90;4.40;;;7.30;99.90;;;;;;5091531;28;20081;-78
2023/04/21 01:35:19;;;;;;;5.25;3.85;;;7.30;99.90;;;;;;5091502;28;20020;-77
2023/04/21 01:37:45;;;;;;;4.18;3.78;;;7.40;99.90;;;;;;5073283;28;20040;-76
2023/04/21 01:40:11;;;;;;;4.10;3.28;;;7.40;99.90;;;;;;5072540;28;20045;-76
2023/04/21 01:42:39;;;;;;;4.15;3.30;;;7.40;99.90;;;;;;5071695;28;20029;-77
2023/04/21 01:45:06;;;;;;;3.88;3.10;;;7.40;99.90;;;;;;5073378;28;20035;-77
2023/04/21 01:47:32;;;;;;;3.20;2.78;;;7.50;99.90;;;;;;5081542;28;20038;-77
2023/04/21 01:49:58;;;;;;;4.65;2.85;;;7.50;99.90;;;;;;5072055;28;20464;-77
2023/04/21 01:52:23;;;;;;;2.78;2.58;;;7.50;99.90;;;;;;5065651;28;20024;-77
2023/04/21 01:54:50;;;;;;;3.22;2.42;;;7.50;99.90;;;;;;5052996;28;20057;-77
2023/04/21 01:57:16;;;;;;;3.50;2.80;;;7.50;99.90;;;;;;5052174;28;20112;-77
2023/04/21 01:59:42;;;;;;;3.88;2.85;;;7.50;99.90;;;;;;5052809;28;20108;-77
2023/04/21 02:02:08;;;;;;;2.75;2.40;;;7.50;99.90;;;;;;5053775;28;20059;-77
2023/04/21 02:04:34;;;;;;;2.65;2.28;;;7.40;99.90;;;;;;5063698;28;20474;-77
2023/04/21 02:07:00;;;;;;;2.95;2.70;;;7.40;99.90;;;;;;5052911;28;20092;-77
2023/04/21 02:09:26;;;;;;;2.15;1.98;;;7.40;99.90;;;;;;5051353;28;20486;-76
2023/04/21 02:11:51;;;;;;;2.35;2.15;;;7.40;99.90;;;;;;5052622;28;20048;-77
2023/04/21 02:14:17;;;;;;;2.15;1.83;;;7.40;99.90;;;;;;5052741;28;20132;-76
2023/04/21 02:16:43;;;;;;;2.15;1.95;;;7.40;99.90;;;;;;5079895;28;20542;-77
2023/04/21 02:19:09;;;;;;;2.45;2.25;;;7.30;99.90;;;;;;5084415;28;20028;-77
2023/04/21 02:21:35;;;;;;;2.80;2.28;;;7.40;99.90;;;;;;5093393;28;20020;-77
2023/04/21 02:24:00;;;;;;;2.40;2.13;;;7.40;99.90;;;;;;5079306;28;20032;-77
2023/04/21 02:26:26;;;;;;;3.03;2.20;;;7.40;99.90;;;;;;5072874;28;20042;-78
2023/04/21 02:28:52;;;;;;;2.53;2.33;;;7.40;99.90;;;;;;5072644;28;20021;-76
2023/04/21 02:31:17;;;;;;;2.05;1.85;;;7.40;99.90;;;;;;5070733;28;20059;-76
2023/04/21 02:33:44;;;;;;;2.00;1.80;;;7.40;99.90;;;;;;5063875;28;20025;-76
2023/04/21 02:36:09;;;;;;;2.15;1.75;;;7.40;99.90;;;;;;5051573;28;20021;-77
2023/04/21 02:38:35;;;;;;;2.03;1.80;;;7.40;99.90;;;;;;5050845;28;20033;-76
2023/04/21 02:41:01;;;;;;;1.80;1.70;;;7.40;99.90;;;;;;5052578;28;20036;-77
2023/04/21 02:43:27;;;;;;;2.20;1.73;;;7.40;99.90;;;;;;5052812;28;20116;-77
2023/04/21 02:45:52;;;;;;;2.30;1.85;;;7.40;99.90;;;;;;5069970;28;20142;-78
2023/04/21 02:48:25;;;;;;;2.75;2.28;;;7.30;99.90;;;;;;5082986;28;20145;-76
2023/04/21 02:50:52;;;;;;;3.75;2.95;;;7.30;99.90;;;;;;5091062;28;20024;-77
2023/04/21 02:53:19;;;;;;;4.28;3.25;;;7.20;99.90;;;;;;5091242;28;20074;-77
2023/04/21 02:55:44;;;;;;;4.53;3.50;;;7.20;99.90;;;;;;5055366;28;20135;-77
2023/04/21 02:58:10;;;;;;;5.20;3.80;;;7.20;99.90;;;;;;5050847;28;20029;-77
2023/04/21 03:00:36;;;;;;;4.22;3.40;;;7.20;99.90;;;;;;5050775;28;20029;-76
2023/04/21 03:03:01;;;;;;;4.82;3.50;;;7.10;99.90;;;;;;5054786;28;20051;-77
2023/04/21 03:05:27;;;;;;;3.92;3.40;;;7.10;99.90;;;;;;5081842;28;20146;-76
2023/04/21 03:07:53;;;;;;;3.65;3.00;;;7.10;99.90;;;;;;5073559;28;20083;-76
2023/04/21 03:10:18;;;;;;;3.55;2.80;;;7.10;99.90;;;;;;5071287;28;20044;-76
2023/04/21 03:12:45;;;;;;;3.00;2.63;;;7.10;99.90;;;;;;5072323;28;20032;-77
2023/04/21 03:15:13;;;;;;;3.90;2.92;;;7.10;99.90;;;;;;5071765;28;20024;-76
2023/04/21 03:17:39;;;;;;;4.00;2.88;;;7.20;99.90;;;;;;5089369;28;20040;-77
2023/04/21 03:20:07;;;;;;;3.58;3.28;;;7.30;99.90;;;;;;5092824;28;20024;-77
2023/04/21 03:22:34;;;;;;;3.50;2.75;;;7.30;99.90;;;;;;5091164;28;20087;-77
2023/04/21 03:24:59;;;;;;;4.63;3.38;;;7.30;99.90;;;;;;5089458;28;20036;-77
2023/04/21 03:27:25;;;;;;;4.50;3.45;;;7.30;99.90;;;;;;5078019;28;20017;-80
2023/04/21 03:29:51;;;;;;;4.65;3.33;;;7.30;99.90;;;;;;5092457;28;20024;-79
2023/04/21 03:32:17;;;;;;;3.83;3.33;;;7.30;99.90;;;;;;5092593;28;20035;-79
2023/04/21 03:34:43;;;;;;;3.85;3.03;;;7.30;99.90;;;;;;5084651;28;20029;-81
2023/04/21 03:37:11;;;;;;;3.78;3.15;;;7.30;99.90;;;;;;5061895;28;20036;-80
2023/04/21 03:39:37;;;;;;;3.55;2.88;;;7.30;99.90;;;;;;5070194;28;20016;-78
2023/04/21 03:42:03;;;;;;;2.63;2.33;;;7.30;99.90;;;;;;5073007;28;20018;-79
2023/04/21 03:44:29;;;;;;;2.90;2.45;;;7.30;99.90;;;;;;5066449;28;20044;-80
2023/04/21 03:46:56;;;;;;;2.33;2.13;;;7.30;99.90;;;;;;5087059;28;20074;-80
2023/04/21 03:49:22;;;;;;;3.08;2.03;;;7.30;99.90;;;;;;5097340;28;20017;-80
2023/04/21 03:51:48;;;;;;;2.80;2.17;;;7.30;99.90;;;;;;5101058;28;20138;-81
2023/04/21 03:54:14;;;;;;;2.55;2.35;;;7.30;99.90;;;;;;5099379;28;20036;-80
2023/04/21 03:56:39;;;;;;;2.22;1.73;;;7.30;99.90;;;;;;5090059;28;20021;-79
2023/04/21 03:59:05;;;;;;;2.88;2.50;;;7.20;99.90;;;;;;5079316;28;20037;-80
2023/04/21 04:01:31;;;;;;;2.92;2.47;;;7.20;99.90;;;;;;5082668;28;20033;-80
2023/04/21 04:03:57;;;;;;;2.88;2.58;;;7.20;99.90;;;;;;5082264;28;20028;-78
2023/04/21 04:06:22;;;;;;;3.78;2.50;;;7.20;99.90;;;;;;5085071;28;20025;-78
2023/04/21 04:08:48;;;;;;;2.72;2.50;;;7.20;99.90;;;;;;5077068;28;20021;-78
2023/04/21 04:11:14;;;;;;;3.05;2.50;;;7.10;99.90;;;;;;5074674;28;20032;-78
2023/04/21 04:13:39;;;;;;;3.50;2.47;;;7.10;99.90;;;;;;5074056;28;20035;-77
2023/04/21 04:16:05;;;;;;;2.60;2.40;;;7.10;99.90;;;;;;5087612;28;20067;-78
2023/04/21 04:18:31;;;;;;;2.58;2.35;;;7.10;99.90;;;;;;5100290;28;20032;-77
2023/04/21 04:20:57;;;;;;;2.58;2.38;;;7.10;99.90;;;;;;5071820;28;20025;-77
2023/04/21 04:23:22;;;;;;;2.63;2.42;;;7.00;99.90;;;;;;5062575;28;20075;-81
2023/04/21 04:25:48;;;;;;;2.67;2.10;;;7.00;99.90;;;;;;5058828;28;20079;-78
2023/04/21 04:28:17;;;;;;;2.25;2.05;;;7.00;99.90;;;;;;5070914;28;20047;-77
2023/04/21 04:30:44;;;;;;;2.85;2.50;;;7.00;99.90;;;;;;5077844;28;20020;-78
2023/04/21 04:33:10;;;;;;;2.22;1.92;;;7.00;99.90;;;;;;5080216;28;20044;-78
2023/04/21 04:35:36;;;;;;;2.08;1.88;;;7.00;99.90;;;;;;5076639;28;20032;-75
2023/04/21 04:38:03;;;;;;;2.47;2.20;;;7.00;99.90;;;;;;5076568;28;20077;-77
2023/04/21 04:40:29;;;;;;;2.00;1.80;;;7.10;99.90;;;;;;5079399;28;20488;-77
2023/04/21 04:42:55;;;;;;;3.20;2.85;;;7.10;99.90;;;;;;5080601;28;20092;-77
2023/04/21 04:45:21;;;;;;;3.25;2.60;;;7.00;99.90;;;;;;5076091;28;20441;-77
2023/04/21 04:47:48;;;;;;;3.08;2.60;;;7.00;99.90;;;;;;5090537;28;20032;-77
2023/04/21 04:50:14;;;;;;;3.50;2.90;;;7.10;99.90;;;;;;5098504;28;20031;-77
2023/04/21 04:52:39;;;;;;;3.42;2.80;;;7.10;99.90;;;;;;5098125;28;20056;-78
2023/04/21 04:55:06;;;;;;;2.80;2.50;;;7.10;99.90;;;;;;5097233;28;20031;-77
2023/04/21 04:57:32;;;;;;;2.63;2.40;;;7.10;99.90;;;;;;5098611;28;20412;-78
2023/04/21 04:59:58;;;;;;;2.15;1.95;;;7.10;99.90;;;;;;5080925;28;20036;-78
2023/04/21 05:02:23;;;;;;;2.42;2.08;;;7.20;99.90;;;;;;5086845;28;20032;-79
2023/04/21 05:04:50;;;;;;;2.15;1.95;;;7.20;99.90;;;;;;5100917;28;20035;-78
2023/04/21 05:07:15;;;;;;;3.05;2.58;;;7.30;99.90;;;;;;5090367;28;20032;-79
2023/04/21 05:09:41;;;;;;;3.10;2.42;;;7.30;99.90;;;;;;5078858;28;20017;-78
2023/04/21 05:12:07;;;;;;;2.25;2.00;;;7.30;99.90;;;;;;5077210;28;20059;-78
2023/04/21 05:14:33;;;;;;;2.17;1.98;;;7.30;99.90;;;;;;5061225;28;20029;-78
2023/04/21 05:16:58;;;;;;;2.65;2.45;;;7.30;99.90;;;;;;5079350;28;20023;-78
2023/04/21 05:19:25;;;;;;;3.05;2.33;;;7.30;99.90;;;;;;5084814;28;20029;-77
2023/04/21 05:21:50;;;;;;;2.15;1.95;;;7.40;99.90;;;;;;5058957;28;20060;-78
2023/04/21 05:24:22;;;;;;;2.28;2.08;;;7.40;99.90;;;;;;5077568;28;20033;-77
2023/04/21 05:26:48;;;;;;;1.92;1.80;;;7.50;99.90;;;;;;5076745;28;20020;-78
2023/04/21 05:29:13;;;;;;;2.03;1.85;;;7.50;99.90;;;;;;5078901;28;20028;-78
2023/04/21 05:31:39;;;;;;;1.63;1.52;;;7.60;99.90;;;;;;5066884;28;20025;-79
2023/04/21 05:34:05;;;;;;;2.00;1.80;;;7.60;99.90;;;;;;5064852;28;20445;-78
2023/04/21 05:36:31;;;;;;;1.85;1.73;;;7.70;99.90;;;;;;5060436;28;20048;-79
2023/04/21 05:38:57;;;;;;;1.67;1.58;;;7.80;99.90;;;;;;5074187;28;20055;-77
2023/04/21 05:41:22;;;;;;;1.85;1.60;;;7.80;99.90;;;;;;5059512;28;20029;-77
2023/04/21 05:43:48;;;;;;;1.55;1.42;;;7.90;99.90;;;;;;5067419;28;20111;-77
2023/04/21 05:46:14;;;;;;;2.10;1.90;;;8.00;99.90;;;;;;5089845;28;20089;-77
2023/04/21 05:48:40;;;;;;;2.20;1.80;;;8.10;99.90;;;;;;5106785;28;20020;-77
2023/04/21 05:51:14;;;;;;;1.80;1.70;;;8.20;99.90;;;;;;5094829;28;20208;-79
2023/04/21 05:53:41;;;;;;;2.25;1.90;;;8.30;99.90;;;;;;5061653;28;20167;-79
2023/04/21 05:56:11;;;;;;;1.33;1.23;;;8.40;99.90;;;;;;5089844;28;20214;-78
2023/04/21 05:58:37;;;;;;;1.30;1.20;;;8.50;99.90;;;;;;5095621;28;20032;-78
2023/04/21 06:01:04;;;;;;;2.97;2.55;;;8.70;99.90;;;;;;5096039;28;20088;-77
2023/04/21 06:03:30;;;;;;;2.60;2.40;;;8.70;99.90;;;;;;5095114;28;20016;-78
2023/04/21 06:05:58;;;;;;;2.22;2.03;;;8.80;99.90;;;;;;5094390;28;20039;-78
2023/04/21 06:08:24;;;;;;;3.72;3.35;;;9.00;99.90;;;;;;5085375;28;20035;-78
2023/04/21 06:10:49;;;;;;;4.93;4.05;;;9.10;99.90;;;;;;5071256;28;20045;-78
2023/04/21 06:13:15;;;;;;;4.70;3.92;;;9.40;99.90;;;;;;5060410;28;20040;-78
2023/04/21 06:15:41;;;;;;;4.07;3.22;;;9.80;99.90;;;;;;5075973;28;20122;-79
2023/04/21 06:18:06;;;;;;;3.60;2.95;;;10.20;99.90;;;;;;5085566;28;20028;-80
2023/04/21 06:20:32;;;;;;;2.30;2.10;;;10.60;99.20;;;;;;5099547;28;20023;-79
2023/04/21 06:22:58;;;;;;;2.53;2.30;;;10.90;98.10;;;;;;5098789;28;20081;-80
2023/04/21 06:25:24;;;;;;;1.80;1.70;;;11.20;97.00;;;;;;5090322;28;20048;-79
2023/04/21 06:27:49;;;;;;;1.70;1.60;;;11.80;96.30;;;;;;5077071;28;20078;-78
2023/04/21 06:30:16;;;;;;;2.22;2.00;;;12.50;95.20;;;;;;5080512;28;20021;-78
2023/04/21 06:32:46;;;;;;;1.50;1.40;;;13.60;93.30;;;;;;5071231;28;20449;-78
2023/04/21 06:35:13;;;;;;;1.40;1.30;;;15.30;91.10;;;;;;5063282;28;20024;-78
2023/04/21 06:37:42;;;;;;;0.70;0.70;;;17.10;86.20;;;;;;5075259;28;20120;-77
2023/04/21 06:40:08;;;;;;;0.93;0.93;;;18.40;77.70;;;;;;5064409;28;20029;-77
2023/04/21 06:42:34;;;;;;;1.80;1.70;;;18.40;69.80;;;;;;5078809;28;20024;-78
2023/04/21 06:45:02;;;;;;;1.10;1.02;;;17.30;68.40;;;;;;5085864;28;20029;-79
2023/04/21 06:47:28;;;;;;;2.83;2.55;;;16.30;70.10;;;;;;5092904;28;20051;-77
2023/04/21 06:49:54;;;;;;;3.40;3.10;;;15.30;72.40;;;;;;5105216;28;20039;-79
2023/04/21 06:52:20;;;;;;;2.92;2.63;;;14.40;74.50;;;;;;5107153;28;20031;-78
2023/04/21 06:54:48;;;;;;;4.13;3.30;;;13.80;78.40;;;;;;5091436;28;20025;-80
2023/04/21 06:57:16;;;;;;;4.00;3.60;;;13.50;79.40;;;;;;5082839;28;20055;-78
2023/04/21 06:59:45;;;;;;;4.03;3.63;;;13.30;80.10;;;;;;5085564;28;20020;-79
2023/04/21 07:02:10;;;;;;;5.18;4.68;;;13.10;81.00;;;;;;5091891;28;20604;-79
2023/04/21 07:04:36;;;;;;;5.45;4.60;;;12.90;82.20;;;;;;5090760;28;20032;-77
2023/04/21 07:07:05;;;;;;;4.07;3.70;;;12.60;83.10;;;;;;5085967;28;20029;-77
2023/04/21 07:09:32;;;;;;;3.67;3.03;;;12.50;84.40;;;;;;5066782;28;20085;-78
2023/04/21 07:11:59;;;;;;;4.97;4.03;;;12.40;85.80;;;;;;5063496;28;20037;-78
2023/04/21 07:14:25;;;;;;;5.45;3.83;;;12.40;85.80;;;;;;5067469;28;20018;-78
2023/04/21 07:16:50;;;;;;;4.63;4.22;;;12.40;86.40;;;;;;5075007;28;20079;-79
2023/04/21 07:19:16;;;;;;;7.05;5.28;;;12.40;86.10;;;;;;5100939;28;20097;-78
2023/04/21 07:21:42;;;;;;;6.53;5.47;;;12.30;86.20;;;;;;5094101;28;20027;-77
2023/04/21 07:24:08;;;;;;;6.55;4.78;;;12.30;86.10;;;;;;5103916;28;20040;-78
2023/04/21 07:26:34;;;;;;;4.53;3.90;;;12.30;86.80;;;;;;5095285;28;20029;-79
2023/04/21 07:29:00;;;;;;;3.58;2.78;;;12.40;86.90;;;;;;5088848;28;20020;-78
2023/04/21 07:31:25;;;;;;;4.03;3.22;;;12.60;86.50;;;;;;5094058;28;20036;-78
2023/04/21 07:33:51;;;;;;;2.60;2.40;;;12.80;86.20;;;;;;5090198;28;20048;-77
2023/04/21 07:36:17;;;;;;;3.10;2.67;;;12.90;84.90;;;;;;5079478;28;20024;-80
2023/04/21 07:38:46;;;;;;;2.45;2.25;;;13.00;84.40;;;;;;5069770;28;20025;-79
2023/04/21 07:41:12;;;;;;;4.20;3.75;;;13.20;84.00;;;;;;5058416;28;20478;-78
2023/04/21 07:43:39;;;;;;;6.57;5.00;;;13.20;83.50;;;;;;5060331;28;20028;-78
2023/04/21 07:46:05;;;;;;;6.20;5.32;;;13.20;83.30;;;;;;5065611;28;20032;-76
2023/04/21 07:48:31;;;;;;;8.73;5.43;;;13.20;83.70;;;;;;5102458;28;20028;-77
2023/04/21 07:50:57;;;;;;;6.28;5.32;;;13.20;82.80;;;;;;5116085;28;20047;-77
2023/04/21 07:53:23;;;;;;;7.68;6.75;;;13.40;82.70;;;;;;5107240;28;20035;-77
2023/04/21 07:55:49;;;;;;;5.85;4.90;;;13.20;82.10;;;;;;5104430;28;20095;-78
2023/04/21 07:58:15;;;;;;;5.57;4.28;;;13.30;83.60;;;;;;5109074;28;20021;-78
2023/04/21 08:00:41;;;;;;;4.05;3.33;;;13.60;82.80;;;;;;5112317;28;20181;-78
2023/04/21 08:03:07;;;;;;;3.13;2.28;;;14.00;81.90;;;;;;5092043;28;20055;-79
2023/04/21 08:05:33;;;;;;;5.07;4.10;;;14.50;80.90;;;;;;5071726;28;20031;-77
2023/04/21 08:07:58;;;;;;;6.13;5.25;;;14.90;78.40;;;;;;5060956;28;20021;-78
2023/04/21 08:10:24;;;;;;;6.32;5.63;;;14.80;76.50;;;;;;5075379;28;20618;-78
2023/04/21 08:12:50;;;;;;;7.85;5.85;;;14.50;76.40;;;;;;5076718;28;20085;-79
2023/04/21 08:15:16;;;;;;;5.95;5.35;;;14.30;77.50;;;;;;5088527;28;20020;-78
2023/04/21 08:17:42;;;;;;;6.75;4.88;;;14.30;77.20;;;;;;5087178;28;20089;-79
2023/04/21 08:20:08;;;;;;;4.78;4.28;;;14.20;77.30;;;;;;5088647;28;20020;-80
2023/04/21 08:22:37;;;;;;;4.45;3.60;;;14.20;78.30;;;;;;5084838;28;20029;-78
2023/04/21 08:25:04;;;;;;;4.75;4.28;;;14.30;78.80;;;;;;5063678;28;20032;-80
2023/04/21 08:27:30;;;;;;;5.63;5.03;;;14.80;77.70;;;;;;5082294;28;20025;-79
2023/04/21 08:29:55;;;;;;;3.97;3.60;;;15.10;75.50;;;;;;5074704;28;20144;-79
2023/04/21 08:32:23;;;;;;;3.35;2.90;;;15.20;74.70;;;;;;5063915;28;20024;-79
2023/04/21 08:34:53;;;;;;;3.33;2.90;;;15.30;74.80;;;;;;5069772;28;20024;-79
2023/04/21 08:37:20;;;;;;;4.78;4.00;;;15.50;74.00;;;;;;5071629;28;20065;-79
2023/04/21 08:39:47;;;;;;;5.53;3.78;;;15.40;72.80;;;;;;5082087;28;20020;-80
2023/04/21 08:42:14;;;;;;;3.38;2.80;;;15.20;72.60;;;;;;5083125;28;20073;-79
2023/04/21 08:44:40;;;;;;;4.65;3.65;;;15.30;73.80;;;;;;5080104;28;20024;-79
2023/04/21 08:47:10;;;;;;;3.95;3.45;;;15.70;72.70;;;;;;5081710;28;20020;-79
2023/04/21 08:49:37;;;;;;;3.72;2.97;;;15.90;71.50;;;;;;5086006;28;20017;-83
2023/04/21 08:52:03;;;;;;;3.25;2.95;;;15.80;70.90;;;;;;5082399;28;20021;-83
2023/04/21 08:54:29;;;;;;;4.35;3.72;;;15.60;71.80;;;;;;5075874;28;20138;-83
2023/04/21 08:56:55;;;;;;;4.50;3.72;;;15.40;72.10;;;;;;5068845;28;20017;-83
2023/04/21 08:59:21;;;;;;;4.63;4.20;;;15.00;73.00;;;;;;5070398;28;20077;-82
2023/04/21 09:02:08;;;;;;;3.95;3.30;;;15.00;74.20;;;;;;5076499;28;20033;-82
2023/04/21 09:04:41;;;;;;;3.97;3.58;;;15.30;74.30;;;;;;5070356;28;20161;-82
2023/04/21 09:07:08;;;;;;;6.60;5.90;;;15.50;73.20;;;;;;5084531;28;20055;-82
2023/04/21 09:09:55;;;;;;;5.30;4.78;;;15.20;72.10;;;;;;5066297;28;20393;-83
2023/04/21 09:12:21;;;;;;;7.45;6.65;;;15.30;73.80;;;;;;5073707;28;20032;-83
2023/04/21 09:14:47;;;;;;;7.20;6.32;;;15.40;73.70;;;;;;5084234;28;20024;-83
2023/04/21 09:17:15;;;;;;;6.35;5.07;;;15.50;73.60;;;;;;5092916;28;20020;-83
2023/04/21 09:19:41;;;;;;;7.65;6.18;;;15.70;73.70;;;;;;5083196;28;20389;-81
2023/04/21 09:22:07;;;;;;;5.18;4.68;;;15.60;73.00;;;;;;5080110;28;20029;-82
2023/04/21 09:24:33;;;;;;;3.42;3.13;;;15.40;74.10;;;;;;5061686;28;20163;-82
2023/04/21 09:27:02;;;;;;;3.35;3.05;;;15.40;75.10;;;;;;5061897;28;20034;-82
2023/04/21 09:29:28;;;;;;;4.85;4.20;;;15.40;74.80;;;;;;5067587;28;20029;-82
2023/04/21 09:31:54;;;;;;;5.20;3.47;;;15.30;74.50;;;;;;5063319;28;20029;-83
2023/04/21 09:34:24;;;;;;;9.18;7.43;;;15.40;75.40;;;;;;5066771;28;20032;-83
2023/04/21 09:37:03;;;;;;;9.13;7.22;;;15.40;74.10;;;;;;5079967;28;20158;-82
2023/04/21 09:39:31;;;;;;;6.72;5.53;;;15.60;74.10;;;;;;5077073;28;20020;-83
2023/04/21 09:41:58;;;;;;;8.32;5.40;;;15.60;74.20;;;;;;5061231;28;20021;-83
2023/04/21 09:44:29;;;;;;;4.22;3.60;;;15.80;74.30;;;;;;5073463;28;20095;-83
2023/04/21 09:47:01;;;;;;;5.97;5.13;;;16.20;74.80;;;;;;5081568;28;20478;-82
2023/04/21 09:49:30;;;;;;;5.97;4.97;;;16.60;72.60;;;;;;5085403;28;20062;-83
2023/04/21 09:52:00;;;;;;;8.10;6.22;;;16.70;71.60;;;;;;5065222;28;20040;-82
2023/04/21 09:54:32;;;;;;;8.18;4.75;;;16.60;71.10;;;;;;5072065;28;20021;-83
2023/04/21 09:57:00;;;;;;;6.10;5.25;;;16.50;71.70;;;;;;5074390;28;20029;-84
2023/04/21 09:59:37;;;;;;;9.88;7.90;;;16.00;71.90;;;;;;5079764;28;20043;-83
2023/04/21 10:02:07;;;;;;;7.68;6.50;;;15.50;73.00;;;;;;5069107;28;20029;-83
2023/04/21 10:04:35;;;;;;;6.47;4.90;;;15.20;75.00;;;;;;5084245;28;20021;-83
2023/04/21 10:07:01;;;;;;;4.40;4.00;;;15.20;76.50;;;;;;5072374;28;20414;-83
2023/04/21 10:09:33;;;;;;;7.95;6.00;;;15.70;75.50;;;;;;5085763;28;20046;-83
2023/04/21 10:12:01;;;;;;;7.20;5.25;;;16.20;73.90;;;;;;5081586;28;20059;-82
2023/04/21 10:14:27;;;;;;;5.10;4.57;;;16.60;72.90;;;;;;5066528;28;20025;-82
2023/04/21 10:17:02;;;;;;;7.63;5.18;;;16.90;72.20;;;;;;5071672;28;20025;-80
2023/04/21 10:19:27;;;;;;;12.32;9.93;;;17.00;70.80;;;;;;5102435;28;20031;-79
2023/04/21 10:21:56;;;;;;;8.25;7.10;;;16.80;70.20;;;;;;5095316;28;20025;-80
2023/04/21 10:24:22;;;;;;;11.18;9.43;;;16.40;72.30;;;;;;5078491;28;20040;-81
2023/04/21 10:26:49;;;;;;;11.98;10.02;;;16.10;72.90;;;;;;5081710;28;20021;-80
2023/04/21 10:29:26;;;;;;;9.93;8.10;;;15.80;74.30;;;;;;5072684;28;20582;-79
2023/04/21 10:31:53;;;;;;;6.38;5.47;;;15.70;76.00;;;;;;5063953;28;20035;-79
2023/04/21 10:34:21;;;;;;;9.95;7.80;;;16.10;77.10;;;;;;5077289;28;20029;-79
2023/04/21 10:37:07;;;;;;;13.57;10.25;;;16.70;75.60;;;;;;5062020;28;20028;-79
2023/04/21 10:39:44;;;;;;;11.93;9.20;;;17.00;73.30;;;;;;5063360;28;20090;-80
2023/04/21 10:42:21;;;;;;;8.95;7.15;;;17.00;73.00;;;;;;5086235;28;20024;-80
2023/04/21 10:44:57;;;;;;;7.10;6.35;;;17.10;73.80;;;;;;5071978;28;20556;-80
2023/04/21 10:47:44;;;;;;;9.40;7.85;;;17.40;73.70;;;;;;5092235;28;20032;-79
2023/04/21 10:50:13;;;;;;;11.68;9.77;;;17.70;72.80;;;;;;5085345;28;20167;-79
2023/04/21 10:52:42;;;;;;;8.98;7.20;;;17.90;71.10;;;;;;5094580;28;20025;-79
2023/04/21 10:55:11;;;;;;;7.55;5.30;;;17.90;72.00;;;;;;5087059;28;20029;-80
2023/04/21 10:57:39;;;;;;;8.68;6.30;;;18.00;72.40;;;;;;5077795;28;20023;-80
2023/04/21 11:00:06;;;;;;;11.93;9.77;;;18.40;71.20;;;;;;5092956;28;20047;-80
2023/04/21 11:02:33;;;;;;;11.82;10.02;;;18.40;69.10;;;;;;5091878;28;20426;-79
2023/04/21 11:05:04;;;;;;;9.07;8.18;;;18.20;69.80;;;;;;5066400;28;20107;-79
2023/04/21 11:07:30;;;;;;;6.78;6.07;;;18.00;70.90;;;;;;5056850;28;20017;-78
2023/04/21 11:10:06;;;;;;;9.75;7.97;;;17.90;71.70;;;;;;5068904;28;20017;-79
2023/04/21 11:12:40;;;;;;;11.30;9.77;;;18.00;71.70;;;;;;5084904;28;20017;-80
2023/04/21 11:15:14;;;;;;;11.70;8.68;;;18.10;70.90;;;;;;5082280;28;20031;-80
2023/04/21 11:17:42;;;;;;;6.93;6.07;;;17.90;71.00;;;;;;5095329;28;20027;-80
2023/04/21 11:20:08;;;;;;;9.88;8.10;;;17.90;71.90;;;;;;5086013;28;20093;-79
2023/04/21 11:22:36;;;;;;;8.25;6.82;;;18.00;71.00;;;;;;5076095;28;20012;-80
2023/04/21 11:25:03;;;;;;;6.63;5.93;;;18.00;71.20;;;;;;5081280;28;20108;-79
2023/04/21 11:27:29;;;;;;;8.88;7.15;;;18.10;71.40;;;;;;5092706;28;20066;-79
2023/04/21 11:29:56;;;;;;;10.32;8.00;;;18.30;70.00;;;;;;5075677;28;20055;-80
2023/04/21 11:32:22;;;;;;;5.93;5.32;;;18.40;69.50;;;;;;5070867;28;20055;-80
2023/04/21 11:34:48;;;;;;;6.13;4.72;;;18.50;69.50;;;;;;5071610;28;20029;-80
2023/04/21 11:37:24;;;;;;;6.47;5.72;;;18.80;69.60;;;;;;5072639;28;20032;-81
2023/04/21 11:39:56;;;;;;;3.97;3.67;;;19.00;68.20;;;;;;5070470;28;20178;-80
2023/04/21 11:42:22;;;;;;;4.80;4.22;;;19.30;68.50;;;;;;5091221;28;20497;-80
2023/04/21 11:44:47;;;;;;;6.97;5.97;;;19.70;67.30;;;;;;5089919;28;20032;-79
2023/04/21 11:47:18;;;;;;;6.07;5.47;;;19.70;66.50;;;;;;5099441;28;20100;-80
2023/04/21 11:49:45;;;;;;;8.80;7.57;;;19.50;66.90;;;;;;5102816;28;20012;-80
2023/04/21 11:52:22;;;;;;;7.22;5.90;;;19.30;67.20;;;;;;5101935;28;20027;-79
2023/04/21 11:54:50;;;;;;;10.93;9.15;;;19.30;68.10;;;;;;5067381;28;20123;-80
2023/04/21 11:57:18;;;;;;;7.97;7.15;;;19.40;67.10;;;;;;5085018;28;20025;-81
2023/04/21 11:59:47;;;;;;;6.50;5.43;;;19.20;68.20;;;;;;5091522;28;20096;-79
2023/04/21 12:02:22;;;;;;;7.03;6.18;;;19.10;68.60;;;;;;5078003;28;20059;-79
2023/04/21 12:05:01;;;;;;;9.70;7.63;;;19.20;68.50;;;;;;5075612;28;20070;-80
2023/04/21 12:07:32;;;;;;;8.50;6.72;;;19.10;67.70;;;;;;5079592;28;20040;-81
2023/04/21 12:09:59;;;;;;;8.55;7.65;;;18.80;68.50;;;;;;5093715;28;20024;-79
2023/04/21 12:12:26;;;;;;;8.65;6.32;;;18.70;68.70;;;;;;5097031;28;20024;-80
2023/04/21 12:14:52;;;;;;;8.63;7.75;;;18.70;68.80;;;;;;5085985;28;20025;-80
2023/04/21 12:17:18;;;;;;;7.47;5.32;;;18.70;69.00;;;;;;5098380;28;20035;-79
2023/04/21 12:19:44;;;;;;;8.15;5.32;;;18.60;68.10;;;;;;5088404;28;20033;-80
2023/04/21 12:22:12;;;;;;;6.88;4.13;;;18.60;67.60;;;;;;5083655;28;20358;-79
2023/04/21 12:24:38;;;;;;;6.72;5.25;;;18.80;67.80;;;;;;5085193;28;20048;-81
2023/04/21 12:27:05;;;;;;;4.20;3.75;;;19.00;65.90;;;;;;5089073;28;20036;-78
2023/04/21 12:29:31;;;;;;;2.75;2.55;;;19.10;65.90;;;;;;5090831;28;20025;-81
2023/04/21 12:31:57;;;;;;;2.42;2.22;;;19.30;65.60;;;;;;5084272;28;20047;-80
2023/04/21 12:34:22;;;;;;;2.80;2.60;;;19.50;64.70;;;;;;5067423;28;20052;-79
2023/04/21 12:36:51;;;;;;;3.13;2.67;;;19.70;63.10;;;;;;5088608;28;20028;-78
2023/04/21 12:39:17;;;;;;;2.78;2.20;;;19.80;62.10;;;;;;5082913;28;20025;-79
2023/04/21 12:41:44;;;;;;;4.07;3.60;;;20.00;61.90;;;;;;5084993;28;20021;-79
2023/04/21 12:44:10;;;;;;;3.20;2.90;;;19.90;59.30;;;;;;5082523;28;20025;-79
2023/04/21 12:46:35;;;;;;;2.22;2.03;;;19.70;59.40;;;;;;5093434;28;20042;-81
2023/04/21 12:49:46;;;;;;;2.10;1.90;;;19.40;60.00;;;;;;5095766;28;20127;-80